sensor_id;sensor_type;location;lat;lon;timestamp;temperature;humidity
68922;DHT22;55959;51.244;5.724;2022-10-22T00:00:13;17.10;68.80
68922;DHT22;55959;51.244;5.724;2022-10-22T00:02:40;17.10;68.70
68922;DHT22;55959;51.244;5.724;2022-10-22T00:05:07;17.10;68.70
68922;DHT22;55959;51.244;5.724;2022-10-22T00:07:33;17.10;68.70
68922;DHT22;55959;51.244;5.724;2022-10-22T00:09:59;17.00;68.50
68922;DHT22;55959;51.244;5.724;2022-10-22T00:12:25;17.00;68.50
68922;DHT22;55959;51.244;5.724;2022-10-22T00:14:51;17.00;68.70
68922;DHT22;55959;51.244;5.724;2022-10-22T00:17:17;17.00;68.90
68922;DHT22;55959;51.244;5.724;2022-10-22T00:19:43;17.00;68.90
68922;DHT22;55959;51.244;5.724;2022-10-22T00:22:10;17.00;69.00
68922;DHT22;55959;51.244;5.724;2022-10-22T00:24:37;17.00;69.10
68922;DHT22;55959;51.244;5.724;2022-10-22T00:27:04;16.90;69.10
68922;DHT22;55959;51.244;5.724;2022-10-22T00:29:31;16.90;69.40
68922;DHT22;55959;51.244;5.724;2022-10-22T00:31:57;16.90;69.50
68922;DHT22;55959;51.244;5.724;2022-10-22T00:34:23;16.90;69.70
68922;DHT22;55959;51.244;5.724;2022-10-22T00:36:51;16.90;69.80
68922;DHT22;55959;51.244;5.724;2022-10-22T00:39:19;16.90;69.90
68922;DHT22;55959;51.244;5.724;2022-10-22T00:41:47;16.90;69.90
68922;DHT22;55959;51.244;5.724;2022-10-22T00:50:36;16.80;70.10
68922;DHT22;55959;51.244;5.724;2022-10-22T00:53:19;16.80;70.30
68922;DHT22;55959;51.244;5.724;2022-10-22T00:55:48;16.80;70.40
68922;DHT22;55959;51.244;5.724;2022-10-22T00:58:16;16.80;70.40
68922;DHT22;55959;51.244;5.724;2022-10-22T01:00:46;16.80;70.40
68922;DHT22;55959;51.244;5.724;2022-10-22T01:03:12;16.80;70.40
68922;DHT22;55959;51.244;5.724;2022-10-22T01:05:44;16.80;70.40
68922;DHT22;55959;51.244;5.724;2022-10-22T01:13:52;16.80;70.50
68922;DHT22;55959;51.244;5.724;2022-10-22T01:22:33;16.70;70.90
68922;DHT22;55959;51.244;5.724;2022-10-22T01:25:11;16.70;71.20
68922;DHT22;55959;51.244;5.724;2022-10-22T01:28:05;16.70;71.30
68922;DHT22;55959;51.244;5.724;2022-10-22T01:30:40;16.70;71.30
68922;DHT22;55959;51.244;5.724;2022-10-22T01:33:09;16.60;71.30
68922;DHT22;55959;51.244;5.724;2022-10-22T01:35:41;16.60;71.30
68922;DHT22;55959;51.244;5.724;2022-10-22T01:38:11;16.70;71.30
68922;DHT22;55959;51.244;5.724;2022-10-22T01:40:42;16.60;71.20
68922;DHT22;55959;51.244;5.724;2022-10-22T01:43:09;16.60;71.30
68922;DHT22;55959;51.244;5.724;2022-10-22T01:45:42;16.60;71.30
68922;DHT22;55959;51.244;5.724;2022-10-22T01:48:33;16.60;71.30
68922;DHT22;55959;51.244;5.724;2022-10-22T01:57:13;16.60;71.50
68922;DHT22;55959;51.244;5.724;2022-10-22T02:00:07;16.60;71.70
68922;DHT22;55959;51.244;5.724;2022-10-22T02:05:29;16.50;72.50
68922;DHT22;55959;51.244;5.724;2022-10-22T02:08:08;16.50;71.60
68922;DHT22;55959;51.244;5.724;2022-10-22T02:10:38;16.50;71.50
68922;DHT22;55959;51.244;5.724;2022-10-22T02:13:14;16.50;71.50
68922;DHT22;55959;51.244;5.724;2022-10-22T02:15:45;16.50;71.50
68922;DHT22;55959;51.244;5.724;2022-10-22T02:18:14;16.50;71.50
68922;DHT22;55959;51.244;5.724;2022-10-22T02:20:42;16.50;71.40
68922;DHT22;55959;51.244;5.724;2022-10-22T02:23:09;16.50;71.50
68922;DHT22;55959;51.244;5.724;2022-10-22T02:25:37;16.50;71.50
68922;DHT22;55959;51.244;5.724;2022-10-22T02:28:25;16.50;71.50
68922;DHT22;55959;51.244;5.724;2022-10-22T02:30:59;16.50;71.50
68922;DHT22;55959;51.244;5.724;2022-10-22T02:33:38;16.50;71.30
68922;DHT22;55959;51.244;5.724;2022-10-22T02:36:08;16.40;71.50
68922;DHT22;55959;51.244;5.724;2022-10-22T02:38:35;16.40;71.50
68922;DHT22;55959;51.244;5.724;2022-10-22T02:41:01;16.40;71.50
68922;DHT22;55959;51.244;5.724;2022-10-22T02:43:28;16.40;71.50
68922;DHT22;55959;51.244;5.724;2022-10-22T02:45:54;16.40;71.50
68922;DHT22;55959;51.244;5.724;2022-10-22T02:48:20;16.40;71.60
68922;DHT22;55959;51.244;5.724;2022-10-22T02:50:45;16.40;71.50
68922;DHT22;55959;51.244;5.724;2022-10-22T02:53:11;16.30;71.50
68922;DHT22;55959;51.244;5.724;2022-10-22T02:55:37;16.30;71.50
68922;DHT22;55959;51.244;5.724;2022-10-22T02:58:02;16.30;71.40
68922;DHT22;55959;51.244;5.724;2022-10-22T03:00:28;16.30;71.40
68922;DHT22;55959;51.244;5.724;2022-10-22T03:02:54;16.30;71.50
68922;DHT22;55959;51.244;5.724;2022-10-22T03:05:20;16.30;71.40
68922;DHT22;55959;51.244;5.724;2022-10-22T03:07:45;16.20;71.30
68922;DHT22;55959;51.244;5.724;2022-10-22T03:10:11;16.20;71.30
68922;DHT22;55959;51.244;5.724;2022-10-22T03:12:37;16.20;71.30
68922;DHT22;55959;51.244;5.724;2022-10-22T03:15:03;16.20;71.30
68922;DHT22;55959;51.244;5.724;2022-10-22T03:17:29;16.20;71.40
68922;DHT22;55959;51.244;5.724;2022-10-22T03:19:54;16.20;71.60
68922;DHT22;55959;51.244;5.724;2022-10-22T03:22:24;16.10;71.80
68922;DHT22;55959;51.244;5.724;2022-10-22T03:24:54;16.10;71.90
68922;DHT22;55959;51.244;5.724;2022-10-22T03:27:26;16.10;72.30
68922;DHT22;55959;51.244;5.724;2022-10-22T03:29:53;16.10;72.30
68922;DHT22;55959;51.244;5.724;2022-10-22T03:32:19;16.10;72.30
68922;DHT22;55959;51.244;5.724;2022-10-22T03:34:45;16.10;72.40
68922;DHT22;55959;51.244;5.724;2022-10-22T03:37:11;16.10;72.50
68922;DHT22;55959;51.244;5.724;2022-10-22T03:39:37;16.00;72.60
68922;DHT22;55959;51.244;5.724;2022-10-22T03:42:04;16.00;72.80
68922;DHT22;55959;51.244;5.724;2022-10-22T03:44:31;16.00;72.90
68922;DHT22;55959;51.244;5.724;2022-10-22T03:46:58;16.00;73.20
68922;DHT22;55959;51.244;5.724;2022-10-22T03:49:24;16.00;73.50
68922;DHT22;55959;51.244;5.724;2022-10-22T03:51:49;16.00;73.70
68922;DHT22;55959;51.244;5.724;2022-10-22T03:54:16;16.00;73.80
68922;DHT22;55959;51.244;5.724;2022-10-22T03:56:41;16.00;74.00
68922;DHT22;55959;51.244;5.724;2022-10-22T03:59:07;16.00;74.20
68922;DHT22;55959;51.244;5.724;2022-10-22T04:01:33;16.00;74.40
68922;DHT22;55959;51.244;5.724;2022-10-22T04:03:58;16.10;74.50
68922;DHT22;55959;51.244;5.724;2022-10-22T04:06:25;16.10;74.70
68922;DHT22;55959;51.244;5.724;2022-10-22T04:08:51;16.10;74.80
68922;DHT22;55959;51.244;5.724;2022-10-22T04:11:17;16.10;74.80
68922;DHT22;55959;51.244;5.724;2022-10-22T04:13:43;16.10;74.80
68922;DHT22;55959;51.244;5.724;2022-10-22T04:16:10;16.10;74.90
68922;DHT22;55959;51.244;5.724;2022-10-22T04:18:38;16.10;74.90
68922;DHT22;55959;51.244;5.724;2022-10-22T04:21:07;16.20;75.00
68922;DHT22;55959;51.244;5.724;2022-10-22T04:23:33;16.20;75.10
68922;DHT22;55959;51.244;5.724;2022-10-22T04:26:01;16.20;75.20
68922;DHT22;55959;51.244;5.724;2022-10-22T04:28:32;16.20;75.30
68922;DHT22;55959;51.244;5.724;2022-10-22T04:30:58;16.20;75.30
68922;DHT22;55959;51.244;5.724;2022-10-22T04:33:24;16.20;75.40
68922;DHT22;55959;51.244;5.724;2022-10-22T04:35:49;16.20;75.50
68922;DHT22;55959;51.244;5.724;2022-10-22T04:38:15;16.20;75.50
68922;DHT22;55959;51.244;5.724;2022-10-22T04:40:41;16.20;75.40
68922;DHT22;55959;51.244;5.724;2022-10-22T04:43:07;16.20;75.30
68922;DHT22;55959;51.244;5.724;2022-10-22T04:45:34;16.20;75.30
68922;DHT22;55959;51.244;5.724;2022-10-22T04:48:01;16.30;75.40
68922;DHT22;55959;51.244;5.724;2022-10-22T04:50:27;16.30;75.40
68922;DHT22;55959;51.244;5.724;2022-10-22T04:52:53;16.20;75.40
68922;DHT22;55959;51.244;5.724;2022-10-22T04:55:19;16.30;75.50
68922;DHT22;55959;51.244;5.724;2022-10-22T04:57:44;16.30;75.50
68922;DHT22;55959;51.244;5.724;2022-10-22T05:00:10;16.30;75.50
68922;DHT22;55959;51.244;5.724;2022-10-22T05:02:36;16.30;75.50
68922;DHT22;55959;51.244;5.724;2022-10-22T05:05:02;16.30;75.50
68922;DHT22;55959;51.244;5.724;2022-10-22T05:07:28;16.30;75.50
68922;DHT22;55959;51.244;5.724;2022-10-22T05:09:54;16.30;75.70
68922;DHT22;55959;51.244;5.724;2022-10-22T05:12:20;16.30;75.70
68922;DHT22;55959;51.244;5.724;2022-10-22T05:14:45;16.30;75.70
68922;DHT22;55959;51.244;5.724;2022-10-22T05:17:11;16.30;75.70
68922;DHT22;55959;51.244;5.724;2022-10-22T05:19:37;16.30;75.80
68922;DHT22;55959;51.244;5.724;2022-10-22T05:22:03;16.30;75.90
68922;DHT22;55959;51.244;5.724;2022-10-22T05:24:31;16.30;75.90
68922;DHT22;55959;51.244;5.724;2022-10-22T05:26:59;16.30;76.10
68922;DHT22;55959;51.244;5.724;2022-10-22T05:29:25;16.30;76.10
68922;DHT22;55959;51.244;5.724;2022-10-22T05:31:52;16.30;76.20
68922;DHT22;55959;51.244;5.724;2022-10-22T05:34:18;16.40;76.30
68922;DHT22;55959;51.244;5.724;2022-10-22T05:36:44;16.40;76.50
68922;DHT22;55959;51.244;5.724;2022-10-22T05:39:10;16.40;77.50
68922;DHT22;55959;51.244;5.724;2022-10-22T05:41:36;16.40;76.70
68922;DHT22;55959;51.244;5.724;2022-10-22T05:44:04;16.40;76.70
68922;DHT22;55959;51.244;5.724;2022-10-22T05:46:33;16.40;76.80
68922;DHT22;55959;51.244;5.724;2022-10-22T05:49:01;16.40;76.90
68922;DHT22;55959;51.244;5.724;2022-10-22T05:51:31;16.40;77.00
68922;DHT22;55959;51.244;5.724;2022-10-22T05:54:00;16.50;77.20
68922;DHT22;55959;51.244;5.724;2022-10-22T05:56:29;16.40;77.10
68922;DHT22;55959;51.244;5.724;2022-10-22T05:58:56;16.50;77.10
68922;DHT22;55959;51.244;5.724;2022-10-22T06:01:28;16.50;77.10
68922;DHT22;55959;51.244;5.724;2022-10-22T06:03:57;16.50;77.10
68922;DHT22;55959;51.244;5.724;2022-10-22T06:06:32;16.50;77.10
68922;DHT22;55959;51.244;5.724;2022-10-22T06:09:26;16.60;77.20
68922;DHT22;55959;51.244;5.724;2022-10-22T06:11:53;16.60;77.10
68922;DHT22;55959;51.244;5.724;2022-10-22T06:14:20;16.60;77.10
68922;DHT22;55959;51.244;5.724;2022-10-22T06:16:47;16.60;77.00
68922;DHT22;55959;51.244;5.724;2022-10-22T06:19:16;16.60;77.00
68922;DHT22;55959;51.244;5.724;2022-10-22T06:21:43;16.60;76.90
68922;DHT22;55959;51.244;5.724;2022-10-22T06:24:09;16.60;76.80
68922;DHT22;55959;51.244;5.724;2022-10-22T06:26:35;16.60;76.70
68922;DHT22;55959;51.244;5.724;2022-10-22T06:29:02;16.60;76.70
68922;DHT22;55959;51.244;5.724;2022-10-22T06:31:29;16.70;76.70
68922;DHT22;55959;51.244;5.724;2022-10-22T06:34:04;16.70;76.50
68922;DHT22;55959;51.244;5.724;2022-10-22T06:36:31;16.70;76.50
68922;DHT22;55959;51.244;5.724;2022-10-22T06:38:57;16.70;76.40
68922;DHT22;55959;51.244;5.724;2022-10-22T06:41:22;16.70;76.40
68922;DHT22;55959;51.244;5.724;2022-10-22T06:43:48;16.70;76.30
68922;DHT22;55959;51.244;5.724;2022-10-22T06:46:19;16.70;76.30
68922;DHT22;55959;51.244;5.724;2022-10-22T06:48:56;16.70;76.20
68922;DHT22;55959;51.244;5.724;2022-10-22T06:51:25;16.70;76.10
68922;DHT22;55959;51.244;5.724;2022-10-22T06:53:52;16.70;76.10
68922;DHT22;55959;51.244;5.724;2022-10-22T06:56:21;16.70;76.00
68922;DHT22;55959;51.244;5.724;2022-10-22T06:58:50;16.70;76.00
68922;DHT22;55959;51.244;5.724;2022-10-22T07:01:19;16.70;76.10
68922;DHT22;55959;51.244;5.724;2022-10-22T07:03:49;16.70;76.10
68922;DHT22;55959;51.244;5.724;2022-10-22T07:06:15;16.70;76.10
68922;DHT22;55959;51.244;5.724;2022-10-22T07:08:42;16.70;76.10
68922;DHT22;55959;51.244;5.724;2022-10-22T07:11:14;16.70;76.10
68922;DHT22;55959;51.244;5.724;2022-10-22T07:13:42;16.70;76.10
68922;DHT22;55959;51.244;5.724;2022-10-22T07:16:09;16.70;76.10
68922;DHT22;55959;51.244;5.724;2022-10-22T07:18:35;16.80;76.10
68922;DHT22;55959;51.244;5.724;2022-10-22T07:21:02;16.80;76.20
68922;DHT22;55959;51.244;5.724;2022-10-22T07:23:29;16.70;76.30
68922;DHT22;55959;51.244;5.724;2022-10-22T07:25:54;16.80;76.40
68922;DHT22;55959;51.244;5.724;2022-10-22T07:28:20;16.80;76.50
68922;DHT22;55959;51.244;5.724;2022-10-22T07:30:46;16.80;76.70
68922;DHT22;55959;51.244;5.724;2022-10-22T07:33:13;16.80;76.80
68922;DHT22;55959;51.244;5.724;2022-10-22T07:35:40;16.80;76.90
68922;DHT22;55959;51.244;5.724;2022-10-22T07:38:06;16.80;76.90
68922;DHT22;55959;51.244;5.724;2022-10-22T07:40:33;16.90;77.00
68922;DHT22;55959;51.244;5.724;2022-10-22T07:43:00;16.90;77.00
68922;DHT22;55959;51.244;5.724;2022-10-22T07:45:26;16.90;77.00
68922;DHT22;55959;51.244;5.724;2022-10-22T07:47:51;16.90;77.00
68922;DHT22;55959;51.244;5.724;2022-10-22T07:50:17;17.00;77.10
68922;DHT22;55959;51.244;5.724;2022-10-22T07:52:43;17.00;77.00
68922;DHT22;55959;51.244;5.724;2022-10-22T07:55:09;17.00;77.00
68922;DHT22;55959;51.244;5.724;2022-10-22T07:57:35;17.10;77.00
68922;DHT22;55959;51.244;5.724;2022-10-22T08:00:05;17.10;77.00
68922;DHT22;55959;51.244;5.724;2022-10-22T08:02:32;17.20;77.00
68922;DHT22;55959;51.244;5.724;2022-10-22T08:04:58;17.20;76.90
68922;DHT22;55959;51.244;5.724;2022-10-22T08:07:24;17.20;76.80
68922;DHT22;55959;51.244;5.724;2022-10-22T08:09:50;17.30;76.90
68922;DHT22;55959;51.244;5.724;2022-10-22T08:12:15;17.30;76.70
68922;DHT22;55959;51.244;5.724;2022-10-22T08:14:41;17.40;76.70
68922;DHT22;55959;51.244;5.724;2022-10-22T08:17:07;17.40;76.70
68922;DHT22;55959;51.244;5.724;2022-10-22T08:19:33;17.40;76.60
68922;DHT22;55959;51.244;5.724;2022-10-22T08:21:59;17.50;76.60
68922;DHT22;55959;51.244;5.724;2022-10-22T08:24:26;17.50;76.60
68922;DHT22;55959;51.244;5.724;2022-10-22T08:26:55;17.60;76.60
68922;DHT22;55959;51.244;5.724;2022-10-22T08:29:24;17.60;76.50
68922;DHT22;55959;51.244;5.724;2022-10-22T08:31:52;17.60;76.50
68922;DHT22;55959;51.244;5.724;2022-10-22T08:34:19;17.70;76.30
68922;DHT22;55959;51.244;5.724;2022-10-22T08:36:45;17.70;76.20
68922;DHT22;55959;51.244;5.724;2022-10-22T08:39:11;17.70;76.10
68922;DHT22;55959;51.244;5.724;2022-10-22T08:42:05;17.80;76.10
68922;DHT22;55959;51.244;5.724;2022-10-22T08:44:50;17.90;76.10
68922;DHT22;55959;51.244;5.724;2022-10-22T08:50:46;17.90;75.80
68922;DHT22;55959;51.244;5.724;2022-10-22T08:53:20;18.00;75.70
68922;DHT22;55959;51.244;5.724;2022-10-22T08:55:48;18.00;75.60
68922;DHT22;55959;51.244;5.724;2022-10-22T08:58:26;18.00;76.30
68922;DHT22;55959;51.244;5.724;2022-10-22T09:01:04;18.10;75.50
68922;DHT22;55959;51.244;5.724;2022-10-22T09:08:42;18.10;74.90
68922;DHT22;55959;51.244;5.724;2022-10-22T09:11:15;18.20;74.90
68922;DHT22;55959;51.244;5.724;2022-10-22T09:13:45;18.20;74.70
68922;DHT22;55959;51.244;5.724;2022-10-22T09:16:18;18.30;74.50
68922;DHT22;55959;51.244;5.724;2022-10-22T09:21:42;18.40;74.30
68922;DHT22;55959;51.244;5.724;2022-10-22T09:24:31;18.40;74.10
68922;DHT22;55959;51.244;5.724;2022-10-22T09:27:14;18.40;74.10
68922;DHT22;55959;51.244;5.724;2022-10-22T09:29:43;18.50;73.90
68922;DHT22;55959;51.244;5.724;2022-10-22T09:32:11;18.50;73.60
68922;DHT22;55959;51.244;5.724;2022-10-22T09:34:37;18.50;73.60
68922;DHT22;55959;51.244;5.724;2022-10-22T09:37:08;18.60;73.70
68922;DHT22;55959;51.244;5.724;2022-10-22T09:39:44;18.60;73.30
68922;DHT22;55959;51.244;5.724;2022-10-22T09:42:15;18.70;73.30
68922;DHT22;55959;51.244;5.724;2022-10-22T09:44:53;18.70;73.20
68922;DHT22;55959;51.244;5.724;2022-10-22T09:47:38;18.80;73.10
68922;DHT22;55959;51.244;5.724;2022-10-22T09:53:18;18.80;72.60
68922;DHT22;55959;51.244;5.724;2022-10-22T09:55:52;18.80;72.40
68922;DHT22;55959;51.244;5.724;2022-10-22T09:58:20;18.90;72.40
68922;DHT22;55959;51.244;5.724;2022-10-22T10:00:53;18.90;72.30
68922;DHT22;55959;51.244;5.724;2022-10-22T10:03:24;18.90;72.00
68922;DHT22;55959;51.244;5.724;2022-10-22T10:05:57;19.00;72.00
68922;DHT22;55959;51.244;5.724;2022-10-22T10:08:23;19.00;71.80
68922;DHT22;55959;51.244;5.724;2022-10-22T10:10:59;19.10;71.70
68922;DHT22;55959;51.244;5.724;2022-10-22T10:13:40;19.10;71.20
68922;DHT22;55959;51.244;5.724;2022-10-22T10:16:40;19.10;71.00
68922;DHT22;55959;51.244;5.724;2022-10-22T10:51:02;19.30;69.70
68922;DHT22;55959;51.244;5.724;2022-10-22T10:56:53;19.40;69.60
68922;DHT22;55959;51.244;5.724;2022-10-22T11:05:44;19.50;69.60
68922;DHT22;55959;51.244;5.724;2022-10-22T11:08:31;19.50;69.40
68922;DHT22;55959;51.244;5.724;2022-10-22T11:11:06;19.50;69.20
68922;DHT22;55959;51.244;5.724;2022-10-22T11:14:02;19.60;70.20
68922;DHT22;55959;51.244;5.724;2022-10-22T11:16:43;19.60;69.10
68922;DHT22;55959;51.244;5.724;2022-10-22T11:22:10;19.70;69.00
68922;DHT22;55959;51.244;5.724;2022-10-22T11:24:48;19.70;69.00
68922;DHT22;55959;51.244;5.724;2022-10-22T11:27:39;19.70;69.00
68922;DHT22;55959;51.244;5.724;2022-10-22T11:32:45;19.80;68.80
68922;DHT22;55959;51.244;5.724;2022-10-22T11:35:21;19.90;68.80
68922;DHT22;55959;51.244;5.724;2022-10-22T11:37:56;19.90;68.80
68922;DHT22;55959;51.244;5.724;2022-10-22T11:43:05;20.00;68.60
68922;DHT22;55959;51.244;5.724;2022-10-22T11:45:40;20.00;68.50
68922;DHT22;55959;51.244;5.724;2022-10-22T11:50:55;20.10;68.20
68922;DHT22;55959;51.244;5.724;2022-10-22T11:55:51;20.20;67.60
68922;DHT22;55959;51.244;5.724;2022-10-22T11:58:29;20.20;67.70
68922;DHT22;55959;51.244;5.724;2022-10-22T12:14:24;20.40;67.00
68922;DHT22;55959;51.244;5.724;2022-10-22T12:16:56;20.40;66.70
68922;DHT22;55959;51.244;5.724;2022-10-22T12:19:47;20.40;66.40
68922;DHT22;55959;51.244;5.724;2022-10-22T12:22:27;20.50;66.30
68922;DHT22;55959;51.244;5.724;2022-10-22T12:24:56;20.50;66.00
68922;DHT22;55959;51.244;5.724;2022-10-22T12:27:27;20.50;67.00
68922;DHT22;55959;51.244;5.724;2022-10-22T12:30:01;20.60;66.10
68922;DHT22;55959;51.244;5.724;2022-10-22T12:32:40;20.60;66.20
68922;DHT22;55959;51.244;5.724;2022-10-22T12:35:13;20.60;66.20
68922;DHT22;55959;51.244;5.724;2022-10-22T12:37:41;20.70;66.00
68922;DHT22;55959;51.244;5.724;2022-10-22T12:40:19;20.70;65.60
68922;DHT22;55959;51.244;5.724;2022-10-22T12:43:12;20.70;65.00
68922;DHT22;55959;51.244;5.724;2022-10-22T12:45:41;20.80;64.20
68922;DHT22;55959;51.244;5.724;2022-10-22T12:48:27;20.80;64.10
68922;DHT22;55959;51.244;5.724;2022-10-22T12:51:00;20.80;64.00
68922;DHT22;55959;51.244;5.724;2022-10-22T12:53:33;20.80;64.10
68922;DHT22;55959;51.244;5.724;2022-10-22T12:56:05;20.80;64.20
68922;DHT22;55959;51.244;5.724;2022-10-22T12:58:42;20.90;63.90
68922;DHT22;55959;51.244;5.724;2022-10-22T13:01:14;20.90;63.70
68922;DHT22;55959;51.244;5.724;2022-10-22T13:03:44;20.90;63.80
68922;DHT22;55959;51.244;5.724;2022-10-22T13:08:42;21.00;63.40
68922;DHT22;55959;51.244;5.724;2022-10-22T13:11:10;21.00;63.00
68922;DHT22;55959;51.244;5.724;2022-10-22T13:16:23;21.10;63.30
68922;DHT22;55959;51.244;5.724;2022-10-22T13:18:51;21.10;63.60
68922;DHT22;55959;51.244;5.724;2022-10-22T13:21:28;21.10;63.60
68922;DHT22;55959;51.244;5.724;2022-10-22T13:26:52;21.20;62.80
68922;DHT22;55959;51.244;5.724;2022-10-22T13:29:19;21.20;62.70
68922;DHT22;55959;51.244;5.724;2022-10-22T13:31:48;21.30;62.60
68922;DHT22;55959;51.244;5.724;2022-10-22T13:34:20;21.30;62.50
68922;DHT22;55959;51.244;5.724;2022-10-22T13:36:48;21.30;62.50
68922;DHT22;55959;51.244;5.724;2022-10-22T13:41:44;21.40;62.20
68922;DHT22;55959;51.244;5.724;2022-10-22T13:44:10;21.40;62.10
68922;DHT22;55959;51.244;5.724;2022-10-22T13:46:36;21.40;61.90
68922;DHT22;55959;51.244;5.724;2022-10-22T13:49:13;21.50;62.00
68922;DHT22;55959;51.244;5.724;2022-10-22T13:51:40;21.50;62.00
68922;DHT22;55959;51.244;5.724;2022-10-22T13:54:15;21.50;61.80
68922;DHT22;55959;51.244;5.724;2022-10-22T13:56:42;21.50;61.80
68922;DHT22;55959;51.244;5.724;2022-10-22T13:59:09;21.60;61.80
68922;DHT22;55959;51.244;5.724;2022-10-22T14:01:36;21.60;62.00
68922;DHT22;55959;51.244;5.724;2022-10-22T14:04:04;21.60;62.20
68922;DHT22;55959;51.244;5.724;2022-10-22T14:06:31;21.60;62.40
68922;DHT22;55959;51.244;5.724;2022-10-22T14:09:00;21.70;62.00
68922;DHT22;55959;51.244;5.724;2022-10-22T14:11:29;21.70;61.50
68922;DHT22;55959;51.244;5.724;2022-10-22T14:14:00;21.70;61.00
68922;DHT22;55959;51.244;5.724;2022-10-22T14:16:30;21.70;60.90
68922;DHT22;55959;51.244;5.724;2022-10-22T14:18:58;21.80;60.80
68922;DHT22;55959;51.244;5.724;2022-10-22T14:21:34;21.80;61.00
68922;DHT22;55959;51.244;5.724;2022-10-22T14:24:01;21.80;61.00
68922;DHT22;55959;51.244;5.724;2022-10-22T14:26:29;21.90;61.00
68922;DHT22;55959;51.244;5.724;2022-10-22T14:28:59;22.00;60.90
68922;DHT22;55959;51.244;5.724;2022-10-22T14:31:26;21.90;60.80
68922;DHT22;55959;51.244;5.724;2022-10-22T14:33:52;22.00;60.90
68922;DHT22;55959;51.244;5.724;2022-10-22T14:36:18;22.10;60.90
68922;DHT22;55959;51.244;5.724;2022-10-22T14:38:45;22.10;60.70
68922;DHT22;55959;51.244;5.724;2022-10-22T14:41:24;22.20;60.60
68922;DHT22;55959;51.244;5.724;2022-10-22T14:43:51;22.20;60.00
68922;DHT22;55959;51.244;5.724;2022-10-22T14:46:18;22.30;59.50
68922;DHT22;55959;51.244;5.724;2022-10-22T14:48:44;22.30;59.40
68922;DHT22;55959;51.244;5.724;2022-10-22T14:51:14;22.30;59.20
68922;DHT22;55959;51.244;5.724;2022-10-22T14:53:42;22.40;58.90
68922;DHT22;55959;51.244;5.724;2022-10-22T14:56:16;22.40;58.80
68922;DHT22;55959;51.244;5.724;2022-10-22T14:58:43;22.40;58.70
68922;DHT22;55959;51.244;5.724;2022-10-22T15:01:09;22.40;58.70
68922;DHT22;55959;51.244;5.724;2022-10-22T15:03:35;22.40;58.50
68922;DHT22;55959;51.244;5.724;2022-10-22T15:06:01;22.40;58.30
68922;DHT22;55959;51.244;5.724;2022-10-22T15:08:28;22.50;58.30
68922;DHT22;55959;51.244;5.724;2022-10-22T15:11:02;22.50;58.10
68922;DHT22;55959;51.244;5.724;2022-10-22T15:13:30;22.50;58.10
68922;DHT22;55959;51.244;5.724;2022-10-22T15:15:57;22.50;58.10
68922;DHT22;55959;51.244;5.724;2022-10-22T15:18:23;22.50;58.00
68922;DHT22;55959;51.244;5.724;2022-10-22T15:21:14;22.50;58.00
68922;DHT22;55959;51.244;5.724;2022-10-22T15:23:44;22.50;57.90
68922;DHT22;55959;51.244;5.724;2022-10-22T15:26:12;22.50;57.80
68922;DHT22;55959;51.244;5.724;2022-10-22T15:28:39;22.50;57.80
68922;DHT22;55959;51.244;5.724;2022-10-22T15:31:05;22.50;57.90
68922;DHT22;55959;51.244;5.724;2022-10-22T15:33:32;22.50;57.80
68922;DHT22;55959;51.244;5.724;2022-10-22T15:36:07;22.50;57.80
68922;DHT22;55959;51.244;5.724;2022-10-22T15:38:35;22.50;57.80
68922;DHT22;55959;51.244;5.724;2022-10-22T15:41:04;22.50;57.70
68922;DHT22;55959;51.244;5.724;2022-10-22T15:43:31;22.40;57.60
68922;DHT22;55959;51.244;5.724;2022-10-22T15:48:38;22.50;57.40
68922;DHT22;55959;51.244;5.724;2022-10-22T15:51:12;22.40;57.40
68922;DHT22;55959;51.244;5.724;2022-10-22T15:53:43;22.40;57.40
68922;DHT22;55959;51.244;5.724;2022-10-22T15:56:10;22.40;57.40
68922;DHT22;55959;51.244;5.724;2022-10-22T15:58:36;22.40;57.60
68922;DHT22;55959;51.244;5.724;2022-10-22T16:01:07;22.40;57.70
68922;DHT22;55959;51.244;5.724;2022-10-22T16:03:35;22.30;57.80
68922;DHT22;55959;51.244;5.724;2022-10-22T16:06:01;22.30;57.90
68922;DHT22;55959;51.244;5.724;2022-10-22T16:08:27;22.30;58.00
68922;DHT22;55959;51.244;5.724;2022-10-22T16:10:53;22.20;57.90
68922;DHT22;55959;51.244;5.724;2022-10-22T16:13:19;22.20;58.00
68922;DHT22;55959;51.244;5.724;2022-10-22T16:15:48;22.10;58.00
68922;DHT22;55959;51.244;5.724;2022-10-22T16:18:14;22.10;58.10
68922;DHT22;55959;51.244;5.724;2022-10-22T16:20:40;22.00;58.10
68922;DHT22;55959;51.244;5.724;2022-10-22T16:23:07;22.00;58.20
68922;DHT22;55959;51.244;5.724;2022-10-22T16:25:42;21.90;58.30
68922;DHT22;55959;51.244;5.724;2022-10-22T16:28:10;21.90;58.30
68922;DHT22;55959;51.244;5.724;2022-10-22T16:30:37;21.80;58.30
68922;DHT22;55959;51.244;5.724;2022-10-22T16:33:05;21.70;58.40
68922;DHT22;55959;51.244;5.724;2022-10-22T16:35:31;21.60;58.30
68922;DHT22;55959;51.244;5.724;2022-10-22T16:37:57;21.60;58.40
68922;DHT22;55959;51.244;5.724;2022-10-22T16:40:25;21.50;58.40
68922;DHT22;55959;51.244;5.724;2022-10-22T16:42:51;21.50;58.50
68922;DHT22;55959;51.244;5.724;2022-10-22T16:45:17;21.40;58.50
68922;DHT22;55959;51.244;5.724;2022-10-22T16:47:42;21.30;58.50
68922;DHT22;55959;51.244;5.724;2022-10-22T16:50:11;21.30;58.50
68922;DHT22;55959;51.244;5.724;2022-10-22T16:52:37;21.20;58.60
68922;DHT22;55959;51.244;5.724;2022-10-22T16:55:03;21.10;58.80
68922;DHT22;55959;51.244;5.724;2022-10-22T16:57:29;21.10;58.90
68922;DHT22;55959;51.244;5.724;2022-10-22T16:59:56;21.00;59.00
68922;DHT22;55959;51.244;5.724;2022-10-22T17:02:22;20.90;59.10
68922;DHT22;55959;51.244;5.724;2022-10-22T17:04:47;20.90;59.20
68922;DHT22;55959;51.244;5.724;2022-10-22T17:07:13;20.80;59.20
68922;DHT22;55959;51.244;5.724;2022-10-22T17:09:39;20.70;59.30
68922;DHT22;55959;51.244;5.724;2022-10-22T17:12:04;20.70;59.50
68922;DHT22;55959;51.244;5.724;2022-10-22T17:14:30;20.60;59.60
68922;DHT22;55959;51.244;5.724;2022-10-22T17:16:56;20.50;59.60
68922;DHT22;55959;51.244;5.724;2022-10-22T17:19:22;20.50;59.80
68922;DHT22;55959;51.244;5.724;2022-10-22T17:21:48;20.40;59.90
68922;DHT22;55959;51.244;5.724;2022-10-22T17:24:16;20.30;60.00
68922;DHT22;55959;51.244;5.724;2022-10-22T17:26:42;20.30;60.10
68922;DHT22;55959;51.244;5.724;2022-10-22T17:29:12;20.20;60.10
68922;DHT22;55959;51.244;5.724;2022-10-22T17:31:38;20.10;61.10
68922;DHT22;55959;51.244;5.724;2022-10-22T17:34:08;20.10;60.30
68922;DHT22;55959;51.244;5.724;2022-10-22T17:36:35;20.00;60.40
68922;DHT22;55959;51.244;5.724;2022-10-22T17:39:04;20.00;60.60
68922;DHT22;55959;51.244;5.724;2022-10-22T17:41:33;19.90;60.70
68922;DHT22;55959;51.244;5.724;2022-10-22T17:44:02;19.90;60.80
68922;DHT22;55959;51.244;5.724;2022-10-22T17:46:31;19.80;60.80